sensor_id;sensor_type;location;lat;lon;timestamp;pressure;altitude;pressure_sealevel;temperature;humidity
57656;BME280;43482;53.334;6.744;2022-10-16T00:00:37;100793.59;;;11.44;100.00
57656;BME280;43482;53.334;6.744;2022-10-16T00:03:05;100785.34;;;11.47;100.00
57656;BME280;43482;53.334;6.744;2022-10-16T00:05:31;100792.31;;;11.48;100.00
57656;BME280;43482;53.334;6.744;2022-10-16T00:07:56;100778.28;;;11.48;100.00
57656;BME280;43482;53.334;6.744;2022-10-16T00:10:22;100782.09;;;11.53;100.00
57656;BME280;43482;53.334;6.744;2022-10-16T00:12:47;100776.66;;;11.55;100.00
57656;BME280;43482;53.334;6.744;2022-10-16T00:15:13;100783.44;;;11.58;100.00
57656;BME280;43482;53.334;6.744;2022-10-16T00:17:38;100778.47;;;11.55;100.00
57656;BME280;43482;53.334;6.744;2022-10-16T00:20:04;100777.66;;;11.54;100.00
57656;BME280;43482;53.334;6.744;2022-10-16T00:22:30;100782.09;;;11.53;100.00
57656;BME280;43482;53.334;6.744;2022-10-16T00:24:55;100782.41;;;11.50;100.00
57656;BME280;43482;53.334;6.744;2022-10-16T00:27:20;100777.41;;;11.47;100.00
57656;BME280;43482;53.334;6.744;2022-10-16T00:29:50;100782.22;;;11.44;100.00
57656;BME280;43482;53.334;6.744;2022-10-16T00:32:16;100777.91;;;11.43;100.00
57656;BME280;43482;53.334;6.744;2022-10-16T00:34:42;100785.00;;;11.42;100.00
57656;BME280;43482;53.334;6.744;2022-10-16T00:37:07;100783.66;;;11.38;100.00
57656;BME280;43482;53.334;6.744;2022-10-16T00:39:32;100780.34;;;11.36;100.00
57656;BME280;43482;53.334;6.744;2022-10-16T00:41:58;100777.03;;;11.34;100.00
57656;BME280;43482;53.334;6.744;2022-10-16T00:44:46;100777.03;;;11.34;100.00
57656;BME280;43482;53.334;6.744;2022-10-16T00:47:26;100777.69;;;11.28;100.00
57656;BME280;43482;53.334;6.744;2022-10-16T00:49:59;100753.63;;;11.13;100.00
57656;BME280;43482;53.334;6.744;2022-10-16T00:52:26;100758.81;;;11.23;100.00
57656;BME280;43482;53.334;6.744;2022-10-16T00:54:53;100775.69;;;11.30;100.00
57656;BME280;43482;53.334;6.744;2022-10-16T00:57:19;100773.22;;;11.28;100.00
57656;BME280;43482;53.334;6.744;2022-10-16T00:59:45;100774.03;;;11.29;100.00
57656;BME280;43482;53.334;6.744;2022-10-16T01:02:15;100773.22;;;11.28;100.00
57656;BME280;43482;53.334;6.744;2022-10-16T01:04:49;100773.34;;;11.27;100.00
57656;BME280;43482;53.334;6.744;2022-10-16T01:12:43;100761.75;;;11.20;100.00
57656;BME280;43482;53.334;6.744;2022-10-16T01:15:17;100770.97;;;11.16;100.00
57656;BME280;43482;53.334;6.744;2022-10-16T01:20:31;100766.66;;;11.15;100.00
57656;BME280;43482;53.334;6.744;2022-10-16T01:29:23;100778.16;;;11.05;100.00
57656;BME280;43482;53.334;6.744;2022-10-16T01:31:43;100777.88;;;11.08;100.00
57656;BME280;43482;53.334;6.744;2022-10-16T01:34:32;100785.41;;;11.03;100.00
57656;BME280;43482;53.334;6.744;2022-10-16T01:37:09;100775.19;;;11.00;100.00
57656;BME280;43482;53.334;6.744;2022-10-16T01:39:36;100773.50;;;10.99;100.00
57656;BME280;43482;53.334;6.744;2022-10-16T01:42:17;100783.44;;;11.05;100.00
57656;BME280;43482;53.334;6.744;2022-10-16T01:44:45;100755.94;;;10.90;100.00
57656;BME280;43482;53.334;6.744;2022-10-16T01:47:11;100780.31;;;11.02;100.00
57656;BME280;43482;53.334;6.744;2022-10-16T01:49:39;100780.31;;;11.02;100.00
57656;BME280;43482;53.334;6.744;2022-10-16T01:52:10;100785.41;;;11.03;100.00
57656;BME280;43482;53.334;6.744;2022-10-16T01:54:37;100779.47;;;11.01;100.00
57656;BME280;43482;53.334;6.744;2022-10-16T01:57:07;100786.78;;;11.07;100.00
57656;BME280;43482;53.334;6.744;2022-10-16T01:59:35;100790.09;;;11.09;100.00
57656;BME280;43482;53.334;6.744;2022-10-16T02:02:06;100778.50;;;11.02;100.00
57656;BME280;43482;53.334;6.744;2022-10-16T02:07:42;100797.75;;;11.21;100.00
57656;BME280;43482;53.334;6.744;2022-10-16T02:10:08;100797.47;;;11.24;100.00
57656;BME280;43482;53.334;6.744;2022-10-16T02:12:36;100800.78;;;11.26;100.00
57656;BME280;43482;53.334;6.744;2022-10-16T02:15:05;100797.66;;;11.30;100.00
57656;BME280;43482;53.334;6.744;2022-10-16T02:17:31;100795.69;;;11.32;100.00
57656;BME280;43482;53.334;6.744;2022-10-16T02:19:58;100783.66;;;11.38;100.00
57656;BME280;43482;53.334;6.744;2022-10-16T02:22:30;100794.91;;;11.40;100.00
57656;BME280;43482;53.334;6.744;2022-10-16T02:25:10;100792.94;;;11.42;100.00
57656;BME280;43482;53.334;6.744;2022-10-16T02:27:44;100782.84;;;11.38;100.00
57656;BME280;43482;53.334;6.744;2022-10-16T02:32:44;100793.81;;;11.51;100.00
57656;BME280;43482;53.334;6.744;2022-10-16T02:35:12;100793.50;;;11.54;100.00
57656;BME280;43482;53.334;6.744;2022-10-16T02:37:38;100777.94;;;11.51;100.00
57656;BME280;43482;53.334;6.744;2022-10-16T02:40:06;100787.38;;;11.53;100.00
57656;BME280;43482;53.334;6.744;2022-10-16T02:42:37;100782.75;;;11.56;100.00
57656;BME280;43482;53.334;6.744;2022-10-16T02:45:04;100770.50;;;11.46;100.00
57656;BME280;43482;53.334;6.744;2022-10-16T02:47:29;100789.25;;;11.61;100.00
57656;BME280;43482;53.334;6.744;2022-10-16T02:49:54;100795.34;;;11.62;100.00
57656;BME280;43482;53.334;6.744;2022-10-16T02:52:20;100793.38;;;11.64;100.00
57656;BME280;43482;53.334;6.744;2022-10-16T02:54:45;100801.16;;;11.65;100.00
57656;BME280;43482;53.334;6.744;2022-10-16T02:57:11;100805.28;;;11.68;100.00
57656;BME280;43482;53.334;6.744;2022-10-16T02:59:37;100803.31;;;11.70;100.00
57656;BME280;43482;53.334;6.744;2022-10-16T03:02:02;100800.00;;;11.68;100.00
57656;BME280;43482;53.334;6.744;2022-10-16T03:04:28;100786.53;;;11.53;100.00
57656;BME280;43482;53.334;6.744;2022-10-16T03:06:53;100798.66;;;11.64;100.00
57656;BME280;43482;53.334;6.744;2022-10-16T03:09:18;100799.28;;;11.58;100.00
57656;BME280;43482;53.334;6.744;2022-10-16T03:11:44;100806.75;;;11.62;100.00
57656;BME280;43482;53.334;6.744;2022-10-16T03:14:09;100806.25;;;11.59;100.00
57656;BME280;43482;53.334;6.744;2022-10-16T03:16:34;100809.19;;;11.56;100.00
57656;BME280;43482;53.334;6.744;2022-10-16T03:19:00;100814.78;;;11.52;100.00
57656;BME280;43482;53.334;6.744;2022-10-16T03:21:26;100812.44;;;11.49;100.00
57656;BME280;43482;53.334;6.744;2022-10-16T03:23:51;100792.59;;;11.37;100.00
57656;BME280;43482;53.334;6.744;2022-10-16T03:26:17;100813.59;;;11.47;100.00
57656;BME280;43482;53.334;6.744;2022-10-16T03:28:42;100811.13;;;11.45;100.00
57656;BME280;43482;53.334;6.744;2022-10-16T03:31:07;100810.59;;;11.42;100.00
57656;BME280;43482;53.334;6.744;2022-10-16T03:33:33;100813.72;;;11.37;100.00
57656;BME280;43482;53.334;6.744;2022-10-16T03:35:59;100816.84;;;11.32;100.00
57656;BME280;43482;53.334;6.744;2022-10-16T03:38:24;100812.50;;;11.31;100.00
57656;BME280;43482;53.334;6.744;2022-10-16T03:40:49;100831.00;;;11.31;100.00
57656;BME280;43482;53.334;6.744;2022-10-16T03:43:15;100825.88;;;11.30;100.00
57656;BME280;43482;53.334;6.744;2022-10-16T03:45:40;100828.69;;;11.28;100.00
57656;BME280;43482;53.334;6.744;2022-10-16T03:48:06;100816.31;;;11.29;100.00
57656;BME280;43482;53.334;6.744;2022-10-16T03:50:31;100821.59;;;11.29;100.00
57656;BME280;43482;53.334;6.744;2022-10-16T03:52:56;100832.16;;;11.29;100.00
57656;BME280;43482;53.334;6.744;2022-10-16T03:55:22;100825.88;;;11.30;100.00
57656;BME280;43482;53.334;6.744;2022-10-16T03:57:47;100821.44;;;11.30;100.00
57656;BME280;43482;53.334;6.744;2022-10-16T04:00:13;100824.91;;;11.31;100.00
57656;BME280;43482;53.334;6.744;2022-10-16T04:02:38;100829.19;;;11.32;100.00
57656;BME280;43482;53.334;6.744;2022-10-16T04:05:05;100825.09;;;11.38;100.00
57656;BME280;43482;53.334;6.744;2022-10-16T04:07:30;100831.91;;;11.40;100.00
57656;BME280;43482;53.334;6.744;2022-10-16T04:09:55;100829.25;;;11.40;100.00
57656;BME280;43482;53.334;6.744;2022-10-16T04:12:22;100832.28;;;11.45;100.00
57656;BME280;43482;53.334;6.744;2022-10-16T04:14:48;100827.28;;;11.42;100.00
57656;BME280;43482;53.334;6.744;2022-10-16T04:17:13;100825.94;;;11.38;100.00
57656;BME280;43482;53.334;6.744;2022-10-16T04:19:38;100828.22;;;11.33;100.00
57656;BME280;43482;53.334;6.744;2022-10-16T04:22:04;100836.44;;;11.30;100.00
57656;BME280;43482;53.334;6.744;2022-10-16T04:24:29;100835.13;;;11.26;100.00
57656;BME280;43482;53.334;6.744;2022-10-16T04:26:55;100845.97;;;11.23;100.00
57656;BME280;43482;53.334;6.744;2022-10-16T04:29:20;100844.63;;;11.19;100.00
57656;BME280;43482;53.334;6.744;2022-10-16T04:31:46;100830.69;;;11.08;100.00
57656;BME280;43482;53.334;6.744;2022-10-16T04:34:12;100848.56;;;11.15;100.00
57656;BME280;43482;53.334;6.744;2022-10-16T04:36:37;100855.97;;;11.11;100.00
57656;BME280;43482;53.334;6.744;2022-10-16T04:39:03;100869.00;;;11.12;100.00
57656;BME280;43482;53.334;6.744;2022-10-16T04:41:28;100871.00;;;11.10;100.00
57656;BME280;43482;53.334;6.744;2022-10-16T04:43:53;100869.84;;;11.13;100.00
57656;BME280;43482;53.334;6.744;2022-10-16T04:46:19;100873.69;;;11.19;100.00
57656;BME280;43482;53.334;6.744;2022-10-16T04:48:44;100879.34;;;11.24;100.00
57656;BME280;43482;53.334;6.744;2022-10-16T04:51:10;100879.72;;;11.29;100.00
57656;BME280;43482;53.334;6.744;2022-10-16T04:53:35;100881.06;;;11.33;100.00
57656;BME280;43482;53.334;6.744;2022-10-16T04:56:01;100891.50;;;11.35;100.00
57656;BME280;43482;53.334;6.744;2022-10-16T04:58:27;100890.19;;;11.39;100.00
57656;BME280;43482;53.334;6.744;2022-10-16T05:00:52;100896.00;;;11.42;100.00
57656;BME280;43482;53.334;6.744;2022-10-16T05:03:18;100884.28;;;11.45;100.00
57656;BME280;43482;53.334;6.744;2022-10-16T05:05:44;100901.69;;;11.56;100.00
57656;BME280;43482;53.334;6.744;2022-10-16T05:08:12;100900.56;;;11.58;100.00
57656;BME280;43482;53.334;6.744;2022-10-16T05:10:38;100902.91;;;11.61;100.00
57656;BME280;43482;53.334;6.744;2022-10-16T05:13:04;100893.00;;;11.63;100.00
57656;BME280;43482;53.334;6.744;2022-10-16T05:15:29;100889.53;;;11.63;100.00
57656;BME280;43482;53.334;6.744;2022-10-16T05:17:55;100887.88;;;11.62;100.00
57656;BME280;43482;53.334;6.744;2022-10-16T05:20:22;100881.59;;;11.63;100.00
57656;BME280;43482;53.334;6.744;2022-10-16T05:22:48;100887.19;;;11.60;100.00
57656;BME280;43482;53.334;6.744;2022-10-16T05:25:13;100900.94;;;11.63;100.00
57656;BME280;43482;53.334;6.744;2022-10-16T05:27:39;100878.22;;;11.52;100.00
57656;BME280;43482;53.334;6.744;2022-10-16T05:30:04;100900.75;;;11.65;100.00
57656;BME280;43482;53.334;6.744;2022-10-16T05:32:30;100913.00;;;11.66;100.00
57656;BME280;43482;53.334;6.744;2022-10-16T05:34:55;100908.88;;;11.63;100.00
57656;BME280;43482;53.334;6.744;2022-10-16T05:37:21;100914.66;;;11.67;100.00
57656;BME280;43482;53.334;6.744;2022-10-16T05:39:46;100907.72;;;11.66;100.00
57656;BME280;43482;53.334;6.744;2022-10-16T05:42:11;100901.63;;;11.65;100.00
57656;BME280;43482;53.334;6.744;2022-10-16T05:44:37;100911.03;;;11.68;100.00
57656;BME280;43482;53.334;6.744;2022-10-16T05:47:02;100902.28;;;11.67;100.00
57656;BME280;43482;53.334;6.744;2022-10-16T05:49:27;100920.94;;;11.66;100.00
57656;BME280;43482;53.334;6.744;2022-10-16T05:51:53;100918.63;;;11.63;100.00
57656;BME280;43482;53.334;6.744;2022-10-16T05:54:18;100909.84;;;11.62;100.00
57656;BME280;43482;53.334;6.744;2022-10-16T05:56:44;100910.84;;;11.61;100.00
57656;BME280;43482;53.334;6.744;2022-10-16T05:59:09;100913.63;;;11.60;100.00
57656;BME280;43482;53.334;6.744;2022-10-16T06:01:34;100919.59;;;11.62;100.00
57656;BME280;43482;53.334;6.744;2022-10-16T06:04:00;100920.59;;;11.61;100.00
57656;BME280;43482;53.334;6.744;2022-10-16T06:06:27;100930.47;;;11.59;100.00
57656;BME280;43482;53.334;6.744;2022-10-16T06:08:54;100897.13;;;11.40;100.00
57656;BME280;43482;53.334;6.744;2022-10-16T06:11:29;100929.81;;;11.57;100.00
57656;BME280;43482;53.334;6.744;2022-10-16T06:13:56;100931.78;;;11.55;100.00
57656;BME280;43482;53.334;6.744;2022-10-16T06:16:23;100952.31;;;11.61;100.00
57656;BME280;43482;53.334;6.744;2022-10-16T06:18:51;100897.75;;;11.33;100.00
57656;BME280;43482;53.334;6.744;2022-10-16T06:21:19;100964.22;;;11.65;100.00
57656;BME280;43482;53.334;6.744;2022-10-16T06:23:45;100942.50;;;11.53;100.00
57656;BME280;43482;53.334;6.744;2022-10-16T06:26:16;100961.88;;;11.62;100.00
57656;BME280;43482;53.334;6.744;2022-10-16T06:28:42;100940.00;;;11.51;100.00
57656;BME280;43482;53.334;6.744;2022-10-16T06:31:09;100953.28;;;11.60;100.00
57656;BME280;43482;53.334;6.744;2022-10-16T06:33:35;100952.81;;;11.64;100.00
57656;BME280;43482;53.334;6.744;2022-10-16T06:36:15;100950.03;;;11.66;100.00
57656;BME280;43482;53.334;6.744;2022-10-16T06:38:41;100958.31;;;11.71;100.00
57656;BME280;43482;53.334;6.744;2022-10-16T06:41:08;100961.47;;;11.74;100.00
57656;BME280;43482;53.334;6.744;2022-10-16T06:43:34;100965.94;;;11.74;100.00
57656;BME280;43482;53.334;6.744;2022-10-16T06:46:04;100961.34;;;11.76;100.00
57656;BME280;43482;53.334;6.744;2022-10-16T06:48:30;100973.56;;;11.77;100.00
57656;BME280;43482;53.334;6.744;2022-10-16T06:51:01;100973.56;;;11.77;100.00
57656;BME280;43482;53.334;6.744;2022-10-16T06:53:29;100977.56;;;11.81;100.00
57656;BME280;43482;53.334;6.744;2022-10-16T06:55:54;100980.00;;;11.74;100.00
57656;BME280;43482;53.334;6.744;2022-10-16T06:58:20;100985.50;;;11.81;100.00
57656;BME280;43482;53.334;6.744;2022-10-16T07:00:46;100996.84;;;11.91;100.00
57656;BME280;43482;53.334;6.744;2022-10-16T07:03:11;101003.91;;;11.91;100.00
57656;BME280;43482;53.334;6.744;2022-10-16T07:05:38;100990.94;;;11.98;100.00
57656;BME280;43482;53.334;6.744;2022-10-16T07:08:04;100994.22;;;12.00;100.00
57656;BME280;43482;53.334;6.744;2022-10-16T07:10:30;101004.50;;;12.03;100.00
57656;BME280;43482;53.334;6.744;2022-10-16T07:12:56;101005.53;;;12.10;100.00
57656;BME280;43482;53.334;6.744;2022-10-16T07:15:21;101012.84;;;12.16;100.00
57656;BME280;43482;53.334;6.744;2022-10-16T07:17:47;101015.81;;;12.13;100.00
57656;BME280;43482;53.334;6.744;2022-10-16T07:20:12;101022.69;;;12.24;100.00
57656;BME280;43482;53.334;6.744;2022-10-16T07:22:37;101013.00;;;12.14;100.00
57656;BME280;43482;53.334;6.744;2022-10-16T07:25:03;101038.75;;;12.30;100.00
57656;BME280;43482;53.334;6.744;2022-10-16T07:27:29;101046.22;;;12.35;100.00
57656;BME280;43482;53.334;6.744;2022-10-16T07:29:54;101025.81;;;12.27;100.00
57656;BME280;43482;53.334;6.744;2022-10-16T07:32:19;101050.03;;;12.41;100.00
57656;BME280;43482;53.334;6.744;2022-10-16T07:34:45;101058.66;;;12.43;100.00
57656;BME280;43482;53.334;6.744;2022-10-16T07:37:10;101056.69;;;12.45;100.00
57656;BME280;43482;53.334;6.744;2022-10-16T07:39:36;101059.19;;;12.46;100.00
57656;BME280;43482;53.334;6.744;2022-10-16T07:42:01;101053.09;;;12.54;100.00
57656;BME280;43482;53.334;6.744;2022-10-16T07:44:27;101057.72;;;12.52;100.00
57656;BME280;43482;53.334;6.744;2022-10-16T07:46:52;101059.06;;;12.56;100.00
57656;BME280;43482;53.334;6.744;2022-10-16T07:49:18;101060.59;;;12.67;100.00
57656;BME280;43482;53.334;6.744;2022-10-16T07:51:43;101079.50;;;12.72;100.00
57656;BME280;43482;53.334;6.744;2022-10-16T07:54:09;101084.03;;;12.88;100.00
57656;BME280;43482;53.334;6.744;2022-10-16T07:56:35;101081.94;;;13.00;100.00
57656;BME280;43482;53.334;6.744;2022-10-16T07:59:00;101081.09;;;12.99;100.00
57656;BME280;43482;53.334;6.744;2022-10-16T08:01:26;101080.06;;;12.84;100.00
57656;BME280;43482;53.334;6.744;2022-10-16T08:03:51;101064.75;;;12.69;100.00
57656;BME280;43482;53.334;6.744;2022-10-16T08:06:19;101094.94;;;12.76;100.00
57656;BME280;43482;53.334;6.744;2022-10-16T08:08:44;101083.66;;;12.74;100.00
57656;BME280;43482;53.334;6.744;2022-10-16T08:11:10;101097.56;;;12.76;100.00
57656;BME280;43482;53.334;6.744;2022-10-16T08:13:36;101091.66;;;12.83;100.00
57656;BME280;43482;53.334;6.744;2022-10-16T08:16:02;101074.50;;;12.69;100.00
57656;BME280;43482;53.334;6.744;2022-10-16T08:18:33;101108.22;;;12.93;100.00
57656;BME280;43482;53.334;6.744;2022-10-16T08:20:59;101116.38;;;13.42;100.00
57656;BME280;43482;53.334;6.744;2022-10-16T08:23:26;101124.25;;;13.76;100.00
57656;BME280;43482;53.334;6.744;2022-10-16T08:25:56;101134.53;;;14.04;100.00
57656;BME280;43482;53.334;6.744;2022-10-16T08:28:26;101126.75;;;14.19;100.00
57656;BME280;43482;53.334;6.744;2022-10-16T08:30:52;101112.16;;;13.98;100.00
57656;BME280;43482;53.334;6.744;2022-10-16T08:33:17;101120.09;;;13.90;100.00
57656;BME280;43482;53.334;6.744;2022-10-16T08:35:42;101141.50;;;13.89;100.00
57656;BME280;43482;53.334;6.744;2022-10-16T08:38:08;101132.38;;;13.91;100.00
57656;BME280;43482;53.334;6.744;2022-10-16T08:40:36;101140.34;;;13.83;100.00
57656;BME280;43482;53.334;6.744;2022-10-16T08:43:09;101133.22;;;14.25;100.00
57656;BME280;43482;53.334;6.744;2022-10-16T08:48:34;101160.81;;;15.75;96.10
57656;BME280;43482;53.334;6.744;2022-10-16T08:51:04;101163.88;;;15.63;96.91
57656;BME280;43482;53.334;6.744;2022-10-16T08:53:43;101133.28;;;14.89;97.45
57656;BME280;43482;53.334;6.744;2022-10-16T08:56:10;101171.03;;;15.23;98.02
57656;BME280;43482;53.334;6.744;2022-10-16T08:58:35;101181.81;;;14.50;99.21
57656;BME280;43482;53.334;6.744;2022-10-16T09:01:12;101183.81;;;14.31;100.00
57656;BME280;43482;53.334;6.744;2022-10-16T09:23:00;101212.00;;;14.08;100.00
57656;BME280;43482;53.334;6.744;2022-10-16T09:25:33;101217.97;;;14.10;100.00
57656;BME280;43482;53.334;6.744;2022-10-16T09:27:59;101232.66;;;14.55;100.00
57656;BME280;43482;53.334;6.744;2022-10-16T09:30:28;101228.44;;;14.93;100.00
57656;BME280;43482;53.334;6.744;2022-10-16T09:32:58;101228.56;;;16.79;96.64
57656;BME280;43482;53.334;6.744;2022-10-16T09:35:32;101221.56;;;17.82;88.49
57656;BME280;43482;53.334;6.744;2022-10-16T09:37:58;101235.16;;;19.37;82.58
57656;BME280;43482;53.334;6.744;2022-10-16T09:40:33;101238.94;;;20.50;76.37
57656;BME280;43482;53.334;6.744;2022-10-16T09:45:33;101238.09;;;21.10;74.12
57656;BME280;43482;53.334;6.744;2022-10-16T09:48:01;101243.50;;;20.83;73.10
57656;BME280;43482;53.334;6.744;2022-10-16T09:50:35;101257.25;;;21.20;72.56
57656;BME280;43482;53.334;6.744;2022-10-16T09:53:18;101257.25;;;19.52;75.09
57656;BME280;43482;53.334;6.744;2022-10-16T09:55:52;101248.88;;;21.62;72.22
57656;BME280;43482;53.334;6.744;2022-10-16T09:58:18;101250.13;;;20.74;73.26
57656;BME280;43482;53.334;6.744;2022-10-16T10:00:51;101250.63;;;22.51;72.47
57656;BME280;43482;53.334;6.744;2022-10-16T10:03:37;101253.16;;;25.49;66.03
57656;BME280;43482;53.334;6.744;2022-10-16T10:06:26;101251.63;;;24.35;62.36
57656;BME280;43482;53.334;6.744;2022-10-16T10:11:52;101266.38;;;24.32;59.24
57656;BME280;43482;53.334;6.744;2022-10-16T10:16:46;101279.56;;;25.58;60.25
57656;BME280;43482;53.334;6.744;2022-10-16T10:19:22;101277.31;;;26.24;56.95
57656;BME280;43482;53.334;6.744;2022-10-16T10:21:49;101274.50;;;25.62;57.63
57656;BME280;43482;53.334;6.744;2022-10-16T10:24:17;101280.31;;;24.95;59.59
57656;BME280;43482;53.334;6.744;2022-10-16T10:27:08;101286.56;;;25.07;57.16
57656;BME280;43482;53.334;6.744;2022-10-16T10:29:42;101297.25;;;22.70;60.83
57656;BME280;43482;53.334;6.744;2022-10-16T10:32:24;101297.63;;;23.61;60.95
57656;BME280;43482;53.334;6.744;2022-10-16T10:35:37;101304.44;;;22.51;62.99
57656;BME280;43482;53.334;6.744;2022-10-16T10:38:13;101305.72;;;21.65;64.88
57656;BME280;43482;53.334;6.744;2022-10-16T10:40:51;101293.63;;;19.75;70.43
57656;BME280;43482;53.334;6.744;2022-10-16T10:45:54;101307.78;;;20.10;71.42
57656;BME280;43482;53.334;6.744;2022-10-16T10:51:28;101316.25;;;22.50;63.42
57656;BME280;43482;53.334;6.744;2022-10-16T10:54:15;101312.34;;;21.56;63.92
57656;BME280;43482;53.334;6.744;2022-10-16T10:57:18;101316.50;;;20.39;67.48
57656;BME280;43482;53.334;6.744;2022-10-16T11:02:50;101307.69;;;19.90;67.74
57656;BME280;43482;53.334;6.744;2022-10-16T11:08:09;101330.78;;;20.66;69.10
57656;BME280;43482;53.334;6.744;2022-10-16T11:10:54;101327.09;;;20.80;62.10
57656;BME280;43482;53.334;6.744;2022-10-16T11:16:20;101345.44;;;23.04;58.21
57656;BME280;43482;53.334;6.744;2022-10-16T11:21:48;101355.06;;;24.10;53.82
57656;BME280;43482;53.334;6.744;2022-10-16T11:27:07;101350.59;;;24.64;54.43
57656;BME280;43482;53.334;6.744;2022-10-16T11:29:33;101353.56;;;24.75;52.79
57656;BME280;43482;53.334;6.744;2022-10-16T11:32:05;101370.75;;;25.16;51.21
57656;BME280;43482;53.334;6.744;2022-10-16T11:34:40;101360.31;;;25.19;52.80
57656;BME280;43482;53.334;6.744;2022-10-16T11:37:17;101372.09;;;24.11;52.86
57656;BME280;43482;53.334;6.744;2022-10-16T11:39:45;101365.13;;;23.66;53.56
57656;BME280;43482;53.334;6.744;2022-10-16T11:42:40;101376.25;;;21.99;58.02
57656;BME280;43482;53.334;6.744;2022-10-16T11:45:27;101375.19;;;21.42;59.86
57656;BME280;43482;53.334;6.744;2022-10-16T11:50:45;101384.91;;;20.28;64.59
57656;BME280;43482;53.334;6.744;2022-10-16T11:55:41;101392.34;;;20.26;63.91
57656;BME280;43482;53.334;6.744;2022-10-16T12:08:27;101413.22;;;20.50;64.07
57656;BME280;43482;53.334;6.744;2022-10-16T12:10:53;101413.31;;;20.16;65.69
57656;BME280;43482;53.334;6.744;2022-10-16T12:13:38;101410.28;;;21.60;62.61
57656;BME280;43482;53.334;6.744;2022-10-16T12:16:20;101422.97;;;22.88;59.22
57656;BME280;43482;53.334;6.744;2022-10-16T12:18:48;101428.59;;;23.62;56.06
57656;BME280;43482;53.334;6.744;2022-10-16T12:21:15;101437.00;;;24.28;54.85
57656;BME280;43482;53.334;6.744;2022-10-16T12:23:51;101431.91;;;24.98;52.96
57656;BME280;43482;53.334;6.744;2022-10-16T12:26:25;101450.28;;;25.67;52.56
57656;BME280;43482;53.334;6.744;2022-10-16T12:28:51;101454.22;;;25.05;52.19
57656;BME280;43482;53.334;6.744;2022-10-16T12:31:16;101458.63;;;23.66;53.85
57656;BME280;43482;53.334;6.744;2022-10-16T12:34:01;101461.84;;;22.02;56.75
57656;BME280;43482;53.334;6.744;2022-10-16T12:36:30;101465.66;;;21.48;59.90
57656;BME280;43482;53.334;6.744;2022-10-16T12:38:56;101461.03;;;20.95;60.53
57656;BME280;43482;53.334;6.744;2022-10-16T12:41:30;101463.31;;;20.37;62.84
57656;BME280;43482;53.334;6.744;2022-10-16T12:43:57;101471.41;;;19.52;63.13
57656;BME280;43482;53.334;6.744;2022-10-16T12:46:35;101469.03;;;19.14;63.45
57656;BME280;43482;53.334;6.744;2022-10-16T12:51:54;101462.53;;;18.50;66.71
57656;BME280;43482;53.334;6.744;2022-10-16T13:02:54;101475.47;;;17.87;69.36
57656;BME280;43482;53.334;6.744;2022-10-16T13:05:59;101472.25;;;17.54;69.55
57656;BME280;43482;53.334;6.744;2022-10-16T13:13:54;101491.34;;;17.05;70.75
57656;BME280;43482;53.334;6.744;2022-10-16T13:16:28;101495.69;;;16.98;72.83
57656;BME280;43482;53.334;6.744;2022-10-16T13:24:59;101505.13;;;16.85;72.18
57656;BME280;43482;53.334;6.744;2022-10-16T13:30:28;101509.25;;;16.49;72.48
57656;BME280;43482;53.334;6.744;2022-10-16T13:33:04;101512.25;;;16.45;73.63
57656;BME280;43482;53.334;6.744;2022-10-16T13:35:33;101513.59;;;16.41;73.55
57656;BME280;43482;53.334;6.744;2022-10-16T13:38:27;101522.59;;;16.40;75.37
57656;BME280;43482;53.334;6.744;2022-10-16T13:40:56;101520.63;;;16.34;75.73
57656;BME280;43482;53.334;6.744;2022-10-16T13:43:26;101510.97;;;16.33;76.33
57656;BME280;43482;53.334;6.744;2022-10-16T13:45:58;101529.94;;;16.38;76.51
57656;BME280;43482;53.334;6.744;2022-10-16T13:48:24;101529.66;;;16.25;77.09
57656;BME280;43482;53.334;6.744;2022-10-16T13:53:38;101539.47;;;16.24;76.62
57656;BME280;43482;53.334;6.744;2022-10-16T13:56:06;101518.03;;;16.01;75.47
57656;BME280;43482;53.334;6.744;2022-10-16T13:58:32;101537.34;;;16.12;75.70
57656;BME280;43482;53.334;6.744;2022-10-16T14:01:01;101547.13;;;16.19;75.40
57656;BME280;43482;53.334;6.744;2022-10-16T14:03:28;101538.00;;;16.06;74.16
57656;BME280;43482;53.334;6.744;2022-10-16T14:05:57;101543.16;;;16.07;74.86
57656;BME280;43482;53.334;6.744;2022-10-16T14:08:25;101553.31;;;16.12;73.92
57656;BME280;43482;53.334;6.744;2022-10-16T14:10:57;101551.69;;;15.94;73.68
57656;BME280;43482;53.334;6.744;2022-10-16T14:15:56;101566.63;;;15.95;74.93
57656;BME280;43482;53.334;6.744;2022-10-16T14:18:25;101573.78;;;15.87;74.20
57656;BME280;43482;53.334;6.744;2022-10-16T14:20:52;101533.34;;;15.58;74.70
57656;BME280;43482;53.334;6.744;2022-10-16T14:23:28;101580.28;;;15.76;74.85
57656;BME280;43482;53.334;6.744;2022-10-16T14:25:54;101567.97;;;15.75;76.44
57656;BME280;43482;53.334;6.744;2022-10-16T14:28:22;101549.00;;;15.61;76.48
57656;BME280;43482;53.334;6.744;2022-10-16T14:30:59;101570.31;;;15.78;77.07
57656;BME280;43482;53.334;6.744;2022-10-16T14:33:33;101580.28;;;15.76;76.81
57656;BME280;43482;53.334;6.744;2022-10-16T14:38:37;101587.06;;;15.62;77.67
57656;BME280;43482;53.334;6.744;2022-10-16T14:41:03;101590.22;;;15.57;77.76
57656;BME280;43482;53.334;6.744;2022-10-16T14:43:38;101598.88;;;15.59;78.25
57656;BME280;43482;53.334;6.744;2022-10-16T14:46:12;101597.03;;;15.60;78.95
57656;BME280;43482;53.334;6.744;2022-10-16T14:48:43;101577.06;;;15.48;79.68
57656;BME280;43482;53.334;6.744;2022-10-16T14:51:15;101611.69;;;15.64;78.62